Time;durP1;ratioP1;P1;durP2;ratioP2;P2;SDS_P1;SDS_P2;PMS_P1;PMS_P2;Temp;Humidity;BMP_temperature;BMP_pressure;BME280_temperature;BME280_humidity;BME280_pressure;Samples;Min_cycle;Max_cycle;Signal;HPM_P1;HPM_P2
2024/03/17 00:01:52;;;;;;;5.20;2.80;;;;;;;5.61;100.00;100709.75;178844;1255;44119;-82
2024/03/17 00:05:59;;;;;;;16.40;4.10;;;;;;;5.53;100.00;100710.50;178676;1257;46004;-81
2024/03/17 00:10:02;;;;;;;5.00;3.10;;;;;;;5.44;100.00;100713.63;178355;1259;46081;-82
2024/03/17 00:14:06;;;;;;;6.30;3.20;;;;;;;5.40;100.00;100718.73;178954;1256;44693;-81
2024/03/17 00:18:10;;;;;;;13.30;3.90;;;;;;;5.35;100.00;100723.27;179202;1259;59728;-81
2024/03/17 00:22:16;;;;;;;6.30;3.20;;;;;;;5.35;100.00;100719.91;178600;1256;46287;-82
2024/03/17 00:26:22;;;;;;;6.50;3.20;;;;;;;5.29;100.00;100718.27;179225;1257;46142;-82
2024/03/17 00:30:24;;;;;;;8.30;3.30;;;;;;;5.31;100.00;100719.42;179726;1256;44079;-82
2024/03/17 00:34:28;;;;;;;10.20;4.00;;;;;;;5.26;100.00;100723.85;178688;1256;45830;-81
2024/03/17 00:38:30;;;;;;;7.70;4.50;;;;;;;5.21;100.00;100729.62;178191;1255;59471;-81
2024/03/17 00:42:33;;;;;;;4.00;2.70;;;;;;;5.15;100.00;100735.02;178448;1256;46124;-81
2024/03/17 00:46:36;;;;;;;10.60;5.00;;;;;;;5.05;100.00;100735.37;179055;1259;46092;-82
2024/03/17 00:50:39;;;;;;;14.00;4.70;;;;;;;4.93;100.00;100741.20;179868;1255;44770;-81
2024/03/17 00:54:42;;;;;;;8.10;4.20;;;;;;;4.90;100.00;100737.35;177967;1256;46134;-81
2024/03/17 00:58:45;;;;;;;18.70;6.10;;;;;;;4.81;100.00;100737.26;177409;1256;60071;-82
2024/03/17 01:02:48;;;;;;;14.50;5.40;;;;;;;4.75;100.00;100737.94;178214;1259;46004;-82
2024/03/17 01:06:51;;;;;;;6.90;5.20;;;;;;;4.60;100.00;100740.42;178473;1256;46132;-82
2024/03/17 01:10:54;;;;;;;19.90;4.90;;;;;;;4.49;100.00;100745.15;179168;1256;44789;-81
2024/03/17 01:14:57;;;;;;;9.30;4.90;;;;;;;4.46;100.00;100748.14;177466;1255;44268;-81
2024/03/17 01:19:00;;;;;;;10.10;4.90;;;;;;;4.42;100.00;100755.67;177476;1259;59604;-81
2024/03/17 01:23:03;;;;;;;7.70;5.30;;;;;;;4.36;100.00;100753.86;178651;1255;46017;-82
2024/03/17 01:27:06;;;;;;;6.80;3.30;;;;;;;4.26;100.00;100755.36;178377;1256;44398;-82
2024/03/17 01:31:09;;;;;;;7.10;4.00;;;;;;;4.32;100.00;100754.77;179054;1256;45994;-81
2024/03/17 01:35:12;;;;;;;7.00;4.70;;;;;;;4.31;100.00;100750.21;179301;1255;46004;-81
2024/03/17 01:39:16;;;;;;;7.20;3.70;;;;;;;4.16;100.00;100751.63;178452;1256;59501;-82
2024/03/17 01:43:19;;;;;;;9.40;4.10;;;;;;;4.18;100.00;100745.94;178301;1256;46219;-82
2024/03/17 01:47:22;;;;;;;12.40;4.70;;;;;;;4.19;100.00;100746.58;179157;1256;46077;-81
2024/03/17 01:51:25;;;;;;;4.20;3.30;;;;;;;4.15;100.00;100748.38;179236;1257;44449;-82
2024/03/17 01:55:28;;;;;;;7.20;3.40;;;;;;;4.15;100.00;100746.25;178602;1256;46542;-82
2024/03/17 01:59:31;;;;;;;7.10;4.00;;;;;;;4.18;100.00;100747.35;179226;1255;57945;-82
2024/03/17 02:03:34;;;;;;;8.70;4.70;;;;;;;4.14;100.00;100750.89;180058;1256;46010;-81
2024/03/17 02:07:37;;;;;;;10.90;4.40;;;;;;;4.03;100.00;100749.98;178775;1256;46025;-82
2024/03/17 02:11:40;;;;;;;5.90;3.30;;;;;;;4.01;100.00;100754.98;178856;1256;46062;-81
2024/03/17 02:15:43;;;;;;;5.20;2.30;;;;;;;3.94;100.00;100751.61;178349;1256;46028;-81
2024/03/17 02:19:45;;;;;;;6.60;3.60;;;;;;;3.89;100.00;100751.34;177839;1259;59727;-81
2024/03/17 02:23:48;;;;;;;7.30;4.00;;;;;;;3.84;100.00;100749.45;178654;1256;46080;-81
2024/03/17 02:27:51;;;;;;;8.00;3.80;;;;;;;3.80;100.00;100754.36;178945;1256;45931;-82
2024/03/17 02:31:54;;;;;;;16.00;3.20;;;;;;;3.75;100.00;100756.01;178775;1255;46139;-82
2024/03/17 02:35:57;;;;;;;12.50;2.90;;;;;;;3.71;100.00;100757.73;179134;1259;46173;-82
2024/03/17 02:40:00;;;;;;;5.00;3.40;;;;;;;3.66;100.00;100766.39;178721;1256;57926;-82
2024/03/17 02:44:03;;;;;;;9.60;3.80;;;;;;;3.59;100.00;100770.73;178086;1257;46081;-82
2024/03/17 02:48:06;;;;;;;8.00;2.20;;;;;;;3.51;100.00;100767.91;178489;1256;44011;-82
2024/03/17 02:52:11;;;;;;;11.00;3.60;;;;;;;3.46;100.00;100768.67;178523;1256;46090;-81
2024/03/17 02:56:18;;;;;;;17.30;5.30;;;;;;;3.38;100.00;100768.15;178698;1256;46209;-82
2024/03/17 03:00:21;;;;;;;7.30;3.90;;;;;;;3.30;100.00;100772.70;178130;1256;59542;-81
2024/03/17 03:04:24;;;;;;;6.30;3.20;;;;;;;3.22;100.00;100773.39;178628;1255;46096;-81
2024/03/17 03:08:27;;;;;;;11.70;4.90;;;;;;;3.14;100.00;100776.73;177753;1259;46122;-81
2024/03/17 03:12:31;;;;;;;8.00;4.00;;;;;;;3.12;100.00;100774.67;177921;1259;45989;-81
2024/03/17 03:16:34;;;;;;;10.00;4.80;;;;;;;3.13;100.00;100775.02;178244;1256;45906;-81
2024/03/17 03:20:36;;;;;;;7.80;4.10;;;;;;;3.11;100.00;100769.48;178160;1256;58772;-81
2024/03/17 03:24:39;;;;;;;6.10;3.80;;;;;;;3.06;100.00;100774.23;177324;1257;46134;-81
2024/03/17 03:28:42;;;;;;;11.20;3.80;;;;;;;2.97;100.00;100776.37;178567;1259;45994;-82
2024/03/17 03:32:45;;;;;;;5.60;3.50;;;;;;;2.93;100.00;100778.48;178994;1259;46004;-81
2024/03/17 03:36:48;;;;;;;10.40;3.80;;;;;;;2.95;100.00;100777.34;178095;1256;45981;-81
2024/03/17 03:40:52;;;;;;;9.80;5.10;;;;;;;2.97;100.00;100778.31;178828;1256;58264;-82
2024/03/17 03:44:55;;;;;;;5.30;2.80;;;;;;;3.01;100.00;100776.93;178748;1259;46025;-82
2024/03/17 03:48:57;;;;;;;9.60;3.80;;;;;;;3.04;100.00;100779.25;177911;1259;46116;-81
2024/03/17 03:53:00;;;;;;;7.10;2.90;;;;;;;3.09;100.00;100780.95;177444;1256;46073;-82
2024/03/17 03:57:03;;;;;;;7.10;3.90;;;;;;;3.12;100.00;100781.36;178470;1257;46013;-82
2024/03/17 04:01:21;;;;;;;12.00;2.80;;;;;;;3.11;100.00;100780.36;178562;1256;60001;-81
2024/03/17 04:05:24;;;;;;;8.00;3.50;;;;;;;3.02;100.00;100783.19;178807;1256;46210;-81
2024/03/17 04:09:27;;;;;;;6.40;3.50;;;;;;;2.99;100.00;100784.36;178452;1258;46447;-81
2024/03/17 04:13:30;;;;;;;13.30;3.10;;;;;;;2.96;100.00;100786.94;179377;1259;46047;-81
2024/03/17 04:17:33;;;;;;;6.60;3.40;;;;;;;2.97;100.00;100790.05;178279;1256;44860;-81
2024/03/17 04:21:36;;;;;;;5.80;3.00;;;;;;;3.00;100.00;100793.24;178485;1257;58983;-81
2024/03/17 04:25:41;;;;;;;6.90;3.30;;;;;;;3.03;100.00;100795.75;177960;1257;46067;-82
2024/03/17 04:29:47;;;;;;;12.20;4.20;;;;;;;3.01;100.00;100802.50;177927;1255;46309;-82
2024/03/17 04:33:51;;;;;;;3.60;2.30;;;;;;;2.95;100.00;100802.04;176923;1257;46111;-81
2024/03/17 04:37:57;;;;;;;14.30;4.60;;;;;;;2.88;100.00;100807.08;177440;1259;46224;-81
2024/03/17 04:41:59;;;;;;;4.30;2.90;;;;;;;2.81;100.00;100808.40;178507;1256;59950;-81
2024/03/17 04:46:05;;;;;;;7.20;2.60;;;;;;;2.76;100.00;100808.79;177954;1256;46087;-82
2024/03/17 04:50:08;;;;;;;4.90;3.80;;;;;;;2.67;100.00;100812.45;178111;1256;44575;-81
2024/03/17 04:54:11;;;;;;;11.40;3.70;;;;;;;2.64;100.00;100815.73;177752;1259;46189;-82
2024/03/17 04:58:14;;;;;;;7.80;3.10;;;;;;;2.65;100.00;100817.80;177649;1257;46114;-82
2024/03/17 05:02:17;;;;;;;22.00;3.50;;;;;;;2.69;100.00;100819.20;177302;1259;59635;-82
2024/03/17 05:06:20;;;;;;;9.40;2.70;;;;;;;2.71;100.00;100819.13;177673;1255;46189;-81
2024/03/17 05:10:23;;;;;;;7.00;3.00;;;;;;;2.73;100.00;100812.91;178395;1256;46225;-81
2024/03/17 05:14:26;;;;;;;8.40;3.40;;;;;;;2.74;100.00;100825.32;178398;1259;46265;-81
2024/03/17 05:18:32;;;;;;;13.70;3.30;;;;;;;2.80;100.00;100822.61;179112;1259;46117;-81
2024/03/17 05:22:35;;;;;;;10.10;4.70;;;;;;;2.92;100.00;100828.27;177597;1259;58328;-82
2024/03/17 05:26:38;;;;;;;9.60;3.00;;;;;;;3.10;100.00;100825.41;178606;1259;46243;-81
2024/03/17 05:30:42;;;;;;;7.70;4.20;;;;;;;3.42;100.00;100818.99;178073;1256;46109;-82
2024/03/17 05:34:45;;;;;;;12.30;3.30;;;;;;;3.83;100.00;100823.19;178855;1255;45496;-82
2024/03/17 05:38:48;;;;;;;11.20;3.80;;;;;;;4.29;100.00;100834.44;178887;1257;46039;-82
2024/03/17 05:42:51;;;;;;;9.40;3.10;;;;;;;4.70;100.00;100842.31;177888;1259;59579;-82
2024/03/17 05:46:56;;;;;;;8.70;3.70;;;;;;;5.04;100.00;100841.21;178492;1257;46173;-82
2024/03/17 05:51:02;;;;;;;11.70;4.10;;;;;;;5.36;100.00;100839.95;179091;1255;46118;-82
2024/03/17 05:55:06;;;;;;;9.90;2.90;;;;;;;5.64;100.00;100835.91;178799;1258;46140;-82
2024/03/17 05:59:08;;;;;;;7.50;3.80;;;;;;;5.90;100.00;100838.23;179644;1256;45998;-82
2024/03/17 06:03:11;;;;;;;9.70;3.40;;;;;;;6.09;98.98;100836.06;178763;1258;59136;-82
2024/03/17 06:07:14;;;;;;;7.60;4.00;;;;;;;6.30;98.24;100839.15;178561;1257;46138;-82
2024/03/17 06:11:17;;;;;;;4.30;2.70;;;;;;;6.43;96.57;100836.64;178844;1260;45997;-82
2024/03/17 06:15:21;;;;;;;7.30;3.80;;;;;;;6.51;95.77;100839.60;178218;1256;44027;-82
2024/03/17 06:19:23;;;;;;;4.40;2.70;;;;;;;6.61;95.57;100839.56;179138;1257;46044;-82
2024/03/17 06:23:27;;;;;;;11.20;4.20;;;;;;;6.56;94.85;100847.95;178697;1256;59827;-82
2024/03/17 06:27:30;;;;;;;2.50;2.30;;;;;;;6.45;95.72;100853.45;178315;1257;45997;-82
2024/03/17 06:31:33;;;;;;;7.30;3.40;;;;;;;6.37;95.76;100857.40;177906;1257;46201;-81
2024/03/17 06:35:37;;;;;;;9.30;3.90;;;;;;;6.18;95.85;100867.27;178493;1257;46229;-82
2024/03/17 06:39:40;;;;;;;6.30;3.50;;;;;;;6.00;97.51;100869.60;178641;1256;44879;-82
2024/03/17 06:43:45;;;;;;;7.80;2.90;;;;;;;5.88;97.09;100865.27;177759;1259;58889;-81
2024/03/17 06:47:48;;;;;;;5.80;2.50;;;;;;;5.91;97.26;100870.58;178493;1256;46676;-81
2024/03/17 06:51:51;;;;;;;8.70;3.00;;;;;;;6.11;97.36;100868.86;178389;1257;46090;-81
2024/03/17 06:55:58;;;;;;;11.80;3.30;;;;;;;6.20;95.29;100875.80;178232;1260;46103;-81
2024/03/17 07:00:05;;;;;;;11.10;3.70;;;;;;;6.23;94.16;100881.95;178188;1257;46073;-81
2024/03/17 07:04:08;;;;;;;3.90;2.80;;;;;;;6.31;93.62;100883.48;178198;1260;58502;-81
2024/03/17 07:08:11;;;;;;;13.20;4.70;;;;;;;6.20;92.06;100888.26;177528;1259;46052;-81
2024/03/17 07:12:14;;;;;;;7.50;3.60;;;;;;;6.12;92.76;100890.30;178577;1257;46029;-81
2024/03/17 07:16:18;;;;;;;9.20;3.90;;;;;;;6.10;94.05;100897.27;177828;1259;46175;-81
2024/03/17 07:20:21;;;;;;;15.30;3.00;;;;;;;6.04;92.61;100897.59;178264;1257;45963;-80
2024/03/17 07:24:24;;;;;;;5.50;2.40;;;;;;;5.98;92.62;100902.98;177041;1257;59664;-80
2024/03/17 07:28:27;;;;;;;22.60;2.00;;;;;;;6.03;93.62;100905.88;178417;1259;46099;-81
2024/03/17 07:32:32;;;;;;;6.90;2.70;;;;;;;6.02;92.64;100906.31;177294;1260;46043;-81
2024/03/17 07:36:35;;;;;;;6.40;3.50;;;;;;;6.01;93.31;100906.34;177966;1259;45990;-81
2024/03/17 07:40:37;;;;;;;4.20;1.70;;;;;;;6.14;94.53;100899.88;178604;1257;46071;-81
2024/03/17 07:44:43;;;;;;;13.60;3.60;;;;;;;6.16;89.36;100911.06;177828;1256;59793;-81
2024/03/17 07:48:47;;;;;;;9.90;3.70;;;;;;;6.16;90.75;100908.06;178389;1256;46193;-80
2024/03/17 07:52:50;;;;;;;2.80;1.90;;;;;;;6.32;92.12;100903.32;177360;1257;46205;-81
2024/03/17 07:56:53;;;;;;;19.00;3.90;;;;;;;6.39;92.88;100911.04;179465;1257;46102;-81
2024/03/17 08:00:59;;;;;;;7.10;4.30;;;;;;;6.42;87.83;100903.69;178540;1256;46135;-81
2024/03/17 08:05:02;;;;;;;12.00;2.30;;;;;;;6.52;87.52;100906.84;178120;1257;59447;-81
2024/03/17 08:09:05;;;;;;;9.60;2.60;;;;;;;6.40;87.79;100903.27;177982;1257;47320;-81
2024/03/17 08:13:08;;;;;;;9.80;3.40;;;;;;;6.62;87.77;100900.29;177858;1258;46065;-80
2024/03/17 08:17:11;;;;;;;6.80;2.30;;;;;;;6.85;89.44;100899.21;178135;1256;46153;-81
2024/03/17 08:21:14;;;;;;;15.20;2.80;;;;;;;7.02;86.74;100911.82;179120;1256;46106;-81
2024/03/17 08:25:17;;;;;;;6.50;3.80;;;;;;;6.87;81.90;100904.52;178733;1257;59247;-81
2024/03/17 08:29:21;;;;;;;10.50;3.90;;;;;;;6.84;83.12;100911.23;179028;1256;44402;-82
2024/03/17 08:33:25;;;;;;;7.40;2.60;;;;;;;6.82;83.72;100901.14;180347;1257;43985;-82
2024/03/17 08:37:27;;;;;;;8.20;3.40;;;;;;;6.92;84.42;100891.23;178248;1258;44681;-81
2024/03/17 08:41:31;;;;;;;8.10;3.00;;;;;;;6.97;83.30;100899.95;177878;1257;46048;-81
2024/03/17 08:45:33;;;;;;;17.30;6.40;;;;;;;6.91;83.67;100895.49;178903;1258;59252;-81
2024/03/17 08:49:53;;;;;;;5.70;2.80;;;;;;;6.88;83.16;100900.98;178677;1257;46070;-82
2024/03/17 08:53:57;;;;;;;5.10;2.20;;;;;;;7.06;83.01;100883.52;178409;1256;46093;-82
2024/03/17 08:58:00;;;;;;;3.20;1.90;;;;;;;7.36;83.53;100884.50;178652;1256;46078;-82
2024/03/17 09:02:03;;;;;;;13.70;3.50;;;;;;;7.22;78.31;100883.70;178963;1257;44603;-82
2024/03/17 09:06:15;;;;;;;6.70;3.00;;;;;;;7.24;80.47;100882.01;179352;1257;58436;-83
2024/03/17 09:10:18;;;;;;;5.40;1.70;;;;;;;7.27;77.84;100896.84;179513;1256;44483;-81
2024/03/17 09:14:21;;;;;;;6.40;1.90;;;;;;;7.48;78.80;100873.91;178991;1256;46003;-83
2024/03/17 09:18:24;;;;;;;9.20;3.10;;;;;;;7.73;77.09;100877.73;179512;1256;45981;-82
2024/03/17 09:22:27;;;;;;;10.80;1.90;;;;;;;7.73;73.43;100887.42;178884;1257;45973;-83
2024/03/17 09:26:30;;;;;;;10.30;1.60;;;;;;;7.91;76.95;100885.80;178774;1256;58002;-82
2024/03/17 09:30:33;;;;;;;11.80;3.90;;;;;;;7.92;74.65;100892.63;178332;1256;46033;-82
2024/03/17 09:34:36;;;;;;;10.60;3.40;;;;;;;7.81;74.36;100889.92;177835;1260;45918;-82
2024/03/17 09:38:39;;;;;;;12.60;4.10;;;;;;;7.74;75.13;100884.03;178575;1256;46190;-82
2024/03/17 09:42:45;;;;;;;2.70;1.50;;;;;;;7.63;75.10;100889.60;179663;1256;43995;-82
2024/03/17 09:46:48;;;;;;;11.10;2.00;;;;;;;7.39;74.24;100892.61;179046;1256;58291;-82
2024/03/17 09:50:52;;;;;;;3.50;2.30;;;;;;;7.26;74.78;100895.08;179122;1256;45991;-82
2024/03/17 09:55:01;;;;;;;6.80;2.70;;;;;;;7.09;74.62;100899.43;179017;1257;46151;-82
2024/03/17 09:59:04;;;;;;;8.70;2.60;;;;;;;7.04;75.09;100902.17;179878;1256;44250;-82
2024/03/17 10:03:08;;;;;;;12.30;3.20;;;;;;;6.91;73.42;100897.60;179679;1259;44359;-81
2024/03/17 10:07:11;;;;;;;13.80;3.20;;;;;;;6.96;76.43;100897.17;178388;1256;58266;-82
2024/03/17 10:11:17;;;;;;;12.20;3.20;;;;;;;7.09;74.54;100885.31;179229;1256;46246;-82
2024/03/17 10:15:21;;;;;;;;;;;;;;;7.28;73.87;100887.23;178489;1256;45781;-81
2024/03/17 10:19:25;;;;;;;9.20;2.40;;;;;;;7.54;72.60;100886.40;178344;1256;44357;-82
2024/03/17 10:23:32;;;;;;;6.40;2.20;;;;;;;7.88;73.61;100879.27;179894;1255;44112;-82
2024/03/17 10:27:35;;;;;;;13.80;7.00;;;;;;;8.11;72.21;100884.61;178922;1257;61380;-81
2024/03/17 10:31:41;;;;;;;5.60;2.10;;;;;;;8.05;67.70;100882.48;179427;1255;46044;-82
2024/03/17 10:35:44;;;;;;;;;;;;;;;7.91;68.85;100873.63;178470;1257;46957;-82
2024/03/17 10:39:50;;;;;;;5.20;1.70;;;;;;;8.12;72.26;100874.45;179283;1256;44091;-81
2024/03/17 10:43:53;;;;;;;2.90;1.40;;;;;;;8.14;69.71;100874.50;180313;1256;44729;-82
2024/03/17 10:48:00;;;;;;;6.50;2.20;;;;;;;8.13;71.34;100874.60;179383;1256;59139;-81
2024/03/17 10:52:17;;;;;;;8.50;2.20;;;;;;;8.41;69.86;100873.02;179212;1256;44149;-81
2024/03/17 10:56:20;;;;;;;8.10;3.10;;;;;;;8.41;67.32;100874.65;179638;1255;46028;-82
2024/03/17 11:00:25;;;;;;;9.90;2.20;;;;;;;8.44;67.67;100873.40;179364;1256;46061;-81
2024/03/17 11:04:28;;;;;;;4.90;2.60;;;;;;;8.50;68.80;100867.88;178834;1259;44136;-81
2024/03/17 11:08:33;;;;;;;6.80;1.90;;;;;;;8.42;70.15;100873.33;179241;1256;59358;-81
2024/03/17 11:12:44;;;;;;;9.00;2.60;;;;;;;8.27;67.52;100876.34;177773;1256;45979;-80
2024/03/17 11:16:47;;;;;;;8.40;2.00;;;;;;;8.48;69.34;100869.77;179169;1255;44114;-82
2024/03/17 11:21:14;;;;;;;8.30;2.40;;;;;;;8.83;69.89;100853.08;180344;1255;199124;-81
2024/03/17 11:25:30;;;;;;;2.80;1.80;;;;;;;9.21;67.52;100843.64;179141;1256;46007;-81
2024/03/17 11:29:33;;;;;;;5.80;1.40;;;;;;;9.59;67.31;100829.10;179046;1256;58768;-81
2024/03/17 11:33:47;;;;;;;3.50;1.40;;;;;;;9.69;65.05;100846.48;178540;1256;46080;-82
2024/03/17 11:37:52;;;;;;;3.10;1.40;;;;;;;9.65;63.64;100826.58;179291;1257;46038;-82
2024/03/17 11:41:55;;;;;;;5.90;1.70;;;;;;;9.69;63.04;100833.34;178501;1256;46045;-82
2024/03/17 11:45:59;;;;;;;3.80;1.70;;;;;;;9.77;64.48;100827.49;179497;1256;46119;-82
2024/03/17 11:50:09;;;;;;;3.50;1.70;;;;;;;9.77;62.88;100828.35;177548;1259;58533;-82
2024/03/17 11:54:19;;;;;;;4.40;2.10;;;;;;;9.96;62.39;100818.55;178914;1255;46095;-82
2024/03/17 11:58:22;;;;;;;6.50;2.20;;;;;;;10.03;62.21;100828.52;179248;1256;46813;-83
2024/03/17 12:02:29;;;;;;;4.60;1.50;;;;;;;9.97;60.72;100817.27;178701;1256;45993;-81
2024/03/17 12:06:33;;;;;;;6.00;2.50;;;;;;;10.11;64.26;100824.56;179239;1256;44288;-81
2024/03/17 12:10:47;;;;;;;8.00;2.00;;;;;;;10.21;59.89;100824.42;177950;1256;59302;-81
2024/03/17 12:14:51;;;;;;;16.90;2.70;;;;;;;10.11;60.07;100824.23;179213;1256;49047;-81
2024/03/17 12:18:54;;;;;;;9.40;1.90;;;;;;;9.72;62.21;100824.27;179067;1255;46058;-81
2024/03/17 12:22:57;;;;;;;4.70;3.30;;;;;;;9.38;60.63;100817.56;179540;1256;46679;-81
2024/03/17 12:27:04;;;;;;;6.20;2.50;;;;;;;9.40;59.78;100808.91;179466;1259;46122;-82
2024/03/17 12:31:07;;;;;;;5.70;2.50;;;;;;;9.55;60.37;100794.09;179103;1255;59235;-82
2024/03/17 12:35:17;;;;;;;5.80;2.00;;;;;;;9.62;60.73;100795.05;179216;1255;46060;-80
2024/03/17 12:39:23;;;;;;;6.10;2.30;;;;;;;9.77;61.88;100786.93;178609;1256;46106;-81
2024/03/17 12:43:27;;;;;;;5.40;1.80;;;;;;;9.95;62.23;100783.16;180224;1256;46132;-81
2024/03/17 12:47:31;;;;;;;3.30;1.90;;;;;;;9.90;59.42;100787.79;179679;1255;45988;-80
2024/03/17 12:51:35;;;;;;;5.00;2.50;;;;;;;9.96;57.35;100788.43;179516;1256;60243;-81
2024/03/17 13:04:21;;;;;;;5.50;2.70;;;;;;;10.16;58.70;100778.52;179728;1255;46064;-81
2024/03/17 13:08:25;;;;;;;5.20;2.80;;;;;;;10.32;58.10;100773.95;179251;1255;46013;-81
2024/03/17 13:12:28;;;;;;;3.40;2.70;;;;;;;10.16;58.38;100772.50;178990;1255;59659;-81
2024/03/17 13:16:31;;;;;;;11.80;3.30;;;;;;;9.96;57.82;100774.24;179259;1256;44390;-81
2024/03/17 13:20:34;;;;;;;8.50;2.70;;;;;;;9.63;59.51;100773.38;178901;1255;46122;-82
2024/03/17 13:24:37;;;;;;;6.00;2.50;;;;;;;9.49;58.04;100771.69;178001;1255;46208;-83
2024/03/17 13:28:40;;;;;;;4.60;2.20;;;;;;;9.70;57.90;100765.77;178824;1256;46086;-82
2024/03/17 13:32:45;;;;;;;2.60;2.10;;;;;;;9.99;58.20;100766.58;178598;1255;58658;-82
2024/03/17 13:36:54;;;;;;;8.40;2.70;;;;;;;10.26;60.07;100767.65;178053;1255;45931;-82
2024/03/17 13:40:57;;;;;;;7.80;2.70;;;;;;;10.44;58.02;100764.83;178060;1256;46125;-81
2024/03/17 13:45:00;;;;;;;6.50;2.20;;;;;;;10.38;57.94;100771.63;179410;1256;46023;-82
2024/03/17 13:49:09;;;;;;;4.50;1.80;;;;;;;10.43;56.02;100767.58;178713;1256;46055;-81
2024/03/17 13:53:12;;;;;;;5.50;2.90;;;;;;;10.39;56.68;100767.13;179493;1256;59237;-81
2024/03/17 13:57:16;;;;;;;6.40;2.80;;;;;;;10.18;57.49;100769.34;177819;1255;46058;-82
2024/03/17 14:01:19;;;;;;;6.40;2.60;;;;;;;10.12;58.37;100765.64;178768;1256;46112;-81
2024/03/17 14:05:24;;;;;;;8.30;2.60;;;;;;;9.69;58.90;100762.70;179878;1256;46232;-82
2024/03/17 14:09:31;;;;;;;8.50;3.20;;;;;;;9.44;59.64;100759.96;178680;1256;44323;-81
2024/03/17 14:13:33;;;;;;;4.80;2.60;;;;;;;9.26;60.26;100758.77;178526;1256;59813;-81
2024/03/17 14:17:41;;;;;;;4.60;2.50;;;;;;;9.34;62.47;100762.79;178768;1255;46035;-81
2024/03/17 14:21:44;;;;;;;9.20;2.20;;;;;;;9.46;56.89;100754.39;178844;1256;44235;-82
2024/03/17 14:25:47;;;;;;;5.60;2.60;;;;;;;9.79;60.61;100750.45;179304;1257;46237;-81
2024/03/17 14:29:51;;;;;;;3.80;1.80;;;;;;;9.95;57.83;100760.13;178354;1257;45994;-82
2024/03/17 14:33:54;;;;;;;7.30;2.20;;;;;;;10.11;60.06;100766.08;177851;1256;59615;-83
2024/03/17 14:37:58;;;;;;;5.90;2.50;;;;;;;10.12;59.25;100766.56;178298;1256;46071;-82
2024/03/17 14:42:04;;;;;;;9.00;2.90;;;;;;;10.12;57.98;100755.19;178455;1255;46106;-82
2024/03/17 14:46:10;;;;;;;7.20;3.30;;;;;;;10.13;59.39;100753.34;178860;1259;46048;-82
2024/03/17 14:50:13;;;;;;;5.20;2.80;;;;;;;10.12;61.12;100748.86;178722;1255;46169;-82
2024/03/17 14:54:16;;;;;;;5.30;2.70;;;;;;;10.05;57.99;100753.02;178800;1256;58086;-82
2024/03/17 14:58:19;;;;;;;7.00;2.80;;;;;;;9.87;57.98;100753.96;179020;1255;44840;-82
2024/03/17 15:02:26;;;;;;;10.40;3.20;;;;;;;9.65;58.47;100752.70;178321;1256;44795;-81
2024/03/17 15:06:30;;;;;;;4.40;2.60;;;;;;;9.37;61.03;100751.09;178642;1256;44328;-82
2024/03/17 15:10:35;;;;;;;7.00;2.80;;;;;;;9.16;62.47;100748.98;178798;1256;44104;-81
2024/03/17 15:14:37;;;;;;;13.60;2.90;;;;;;;8.94;61.24;100747.09;179145;1259;58351;-82
2024/03/17 15:18:41;;;;;;;8.80;2.40;;;;;;;8.78;63.23;100743.56;178539;1256;46171;-82
2024/03/17 15:22:51;;;;;;;6.00;2.90;;;;;;;8.60;61.42;100756.78;179468;1256;46011;-82
2024/03/17 15:26:54;;;;;;;7.20;2.90;;;;;;;8.53;63.76;100758.27;179928;1256;44652;-82
2024/03/17 15:31:00;;;;;;;6.60;2.40;;;;;;;8.40;62.47;100762.84;178797;1255;46122;-81
2024/03/17 15:35:03;;;;;;;3.10;1.60;;;;;;;8.31;63.51;100766.73;179402;1256;60229;-81
2024/03/17 15:39:06;;;;;;;4.80;2.20;;;;;;;8.32;64.43;100767.75;179070;1257;44469;-81
2024/03/17 15:43:09;;;;;;;4.10;1.40;;;;;;;8.32;63.15;100772.34;179206;1256;44736;-81
2024/03/17 15:47:12;;;;;;;4.90;2.20;;;;;;;8.32;62.55;100770.54;179504;1256;46114;-81
2024/03/17 15:51:16;;;;;;;4.20;2.10;;;;;;;8.33;62.24;100771.54;178924;1257;46024;-81
2024/03/17 15:55:19;;;;;;;3.90;1.90;;;;;;;8.31;61.93;100774.87;178434;1256;59812;-82
2024/03/17 15:59:22;;;;;;;5.90;1.50;;;;;;;8.22;61.14;100772.23;179504;1256;46246;-82
2024/03/17 16:03:33;;;;;;;5.60;2.00;;;;;;;8.06;63.16;100772.56;178662;1256;46041;-82
2024/03/17 16:07:38;;;;;;;5.70;1.70;;;;;;;7.97;65.95;100776.51;179077;1256;46046;-82
2024/03/17 16:11:41;;;;;;;8.60;4.20;;;;;;;7.86;67.74;100776.24;178881;1255;44135;-81
2024/03/17 16:15:44;;;;;;;5.20;2.20;;;;;;;7.83;69.19;100780.52;180599;1256;59370;-80
2024/03/17 16:19:48;;;;;;;8.00;3.10;;;;;;;7.81;67.74;100784.67;179572;1256;46154;-81
2024/03/17 16:24:18;;;;;;;9.00;3.30;;;;;;;7.82;65.44;100785.51;180454;1256;44127;-82
2024/03/17 16:28:22;;;;;;;2.70;2.00;;;;;;;7.80;65.76;100788.50;178551;1256;46129;-82
2024/03/17 16:32:24;;;;;;;13.00;4.10;;;;;;;7.77;67.65;100793.63;179337;1256;46052;-81
2024/03/17 16:36:28;;;;;;;1.60;1.30;;;;;;;7.70;66.94;100790.85;178671;1258;59449;-81
2024/03/17 16:40:31;;;;;;;4.30;1.50;;;;;;;7.65;67.43;100789.21;178676;1256;46033;-82
2024/03/17 16:44:55;;;;;;;5.90;2.50;;;;;;;7.61;67.69;100787.03;178110;1256;46099;-82
2024/03/17 16:48:58;;;;;;;5.50;1.90;;;;;;;7.51;67.32;100789.04;178108;1256;44924;-82
2024/03/17 16:53:01;;;;;;;7.20;2.40;;;;;;;7.40;68.28;100786.34;179255;1255;45914;-81
2024/03/17 16:57:05;;;;;;;7.40;1.90;;;;;;;7.32;68.96;100787.32;178514;1256;60300;-81
2024/03/17 17:01:12;;;;;;;5.50;2.10;;;;;;;7.29;71.34;100791.56;178700;1256;44529;-82
2024/03/17 17:05:15;;;;;;;11.60;3.50;;;;;;;7.29;72.71;100797.88;179145;1256;46055;-81
2024/03/17 17:09:19;;;;;;;32.50;5.10;;;;;;;7.27;74.88;100800.28;179044;1259;44335;-82
2024/03/17 17:13:24;;;;;;;5.70;3.20;;;;;;;7.22;75.93;100804.50;179005;1256;44463;-82
2024/03/17 17:17:27;;;;;;;10.00;3.80;;;;;;;7.15;77.01;100804.38;178364;1255;58633;-82
2024/03/17 17:21:31;;;;;;;10.50;4.20;;;;;;;7.12;76.98;100809.32;178250;1256;46144;-82
2024/03/17 17:25:34;;;;;;;13.30;5.00;;;;;;;7.08;78.84;100818.54;179187;1256;46106;-82
2024/03/17 17:29:38;;;;;;;12.70;5.00;;;;;;;6.99;80.12;100820.09;178474;1259;46220;-82
2024/03/17 17:33:41;;;;;;;7.50;4.10;;;;;;;6.87;81.20;100822.08;179588;1256;46139;-82
2024/03/17 17:37:43;;;;;;;5.90;3.70;;;;;;;6.74;79.78;100827.91;178630;1256;57433;-83
2024/03/17 17:41:47;;;;;;;6.70;4.30;;;;;;;6.62;79.24;100824.85;178274;1255;46295;-82
2024/03/17 17:45:50;;;;;;;9.10;5.00;;;;;;;6.55;79.50;100824.71;179065;1257;46017;-81
2024/03/17 17:49:53;;;;;;;4.50;4.10;;;;;;;6.46;79.38;100829.08;179302;1256;46260;-81
2024/03/17 17:53:56;;;;;;;6.30;3.50;;;;;;;6.38;79.01;100836.95;179938;1256;46092;-82
2024/03/17 17:58:00;;;;;;;6.90;4.50;;;;;;;6.27;77.51;100834.00;178242;1257;58017;-81
2024/03/17 18:02:03;;;;;;;11.00;5.60;;;;;;;6.20;77.40;100837.05;179075;1255;45916;-81
2024/03/17 18:06:07;;;;;;;5.90;4.50;;;;;;;6.13;77.49;100834.58;178608;1255;46039;-80
2024/03/17 18:10:10;;;;;;;6.30;4.30;;;;;;;6.06;78.04;100834.96;179618;1256;46023;-81
2024/03/17 18:14:13;;;;;;;7.00;3.90;;;;;;;6.00;79.03;100837.19;179301;1256;46076;-81
2024/03/17 18:18:15;;;;;;;8.80;4.50;;;;;;;5.94;79.69;100836.80;179478;1259;59231;-81
2024/03/17 18:22:19;;;;;;;6.40;4.40;;;;;;;5.88;80.57;100839.59;179594;1255;46003;-81
2024/03/17 18:26:22;;;;;;;8.30;3.40;;;;;;;5.82;81.25;100836.04;178895;1255;46148;-81
2024/03/17 18:30:25;;;;;;;6.30;4.20;;;;;;;5.77;80.64;100838.60;178578;1256;45113;-82
2024/03/17 18:34:29;;;;;;;9.50;3.60;;;;;;;5.72;79.35;100837.63;179194;1256;46033;-81
2024/03/17 18:38:34;;;;;;;5.70;3.70;;;;;;;5.68;80.12;100836.04;178495;1256;58387;-81
2024/03/17 18:42:37;;;;;;;10.20;4.30;;;;;;;5.61;79.57;100833.44;180153;1256;46037;-81
2024/03/17 18:46:40;;;;;;;7.80;4.00;;;;;;;5.52;79.08;100836.54;178836;1256;46120;-81
2024/03/17 18:50:43;;;;;;;5.30;3.90;;;;;;;5.42;79.46;100832.30;178800;1255;46005;-81
2024/03/17 18:54:46;;;;;;;4.30;3.50;;;;;;;5.30;79.87;100835.91;179727;1256;46001;-82
2024/03/17 18:58:49;;;;;;;7.60;4.50;;;;;;;5.20;81.16;100835.88;178786;1256;59297;-81